createdAt,value
2018-04-02T00:02:22.277Z,36.60
2018-04-02T00:04:56.989Z,36.80
2018-04-02T00:07:31.626Z,36.70
2018-04-02T00:10:06.474Z,36.40
2018-04-02T00:12:40.989Z,36.60
2018-04-02T00:15:15.699Z,36.80
2018-04-02T00:17:50.330Z,36.60
2018-04-02T00:20:24.752Z,36.50
2018-04-02T00:22:59.369Z,36.70
2018-04-02T00:25:33.938Z,36.70
2018-04-02T00:28:08.559Z,36.80
2018-04-02T00:30:43.195Z,36.90
2018-04-02T00:33:17.778Z,36.90
2018-04-02T00:35:52.398Z,36.80
2018-04-02T00:38:27.116Z,36.50
2018-04-02T00:41:01.861Z,36.40
2018-04-02T00:43:36.278Z,36.60
2018-04-02T00:46:10.860Z,36.60
2018-04-02T00:48:45.499Z,36.80
2018-04-02T00:51:19.916Z,36.80
2018-04-02T00:53:55.010Z,37.00
2018-04-02T00:56:29.488Z,36.80
2018-04-02T00:59:04.115Z,36.50
2018-04-02T01:01:38.754Z,36.70
2018-04-02T01:04:13.363Z,36.80
2018-04-02T01:06:48.819Z,37.00
2018-04-02T01:09:23.536Z,37.00
2018-04-02T01:11:58.168Z,37.00
2018-04-02T01:14:32.796Z,36.80
2018-04-02T01:17:07.696Z,36.90
2018-04-02T01:19:42.453Z,36.70
2018-04-02T01:22:16.981Z,36.80
2018-04-02T01:24:51.707Z,36.70
2018-04-02T01:27:26.243Z,36.70
2018-04-02T01:30:00.879Z,36.90
2018-04-02T01:32:35.606Z,37.00
2018-04-02T01:35:10.032Z,36.70
2018-04-02T01:37:44.629Z,36.90
2018-04-02T01:40:19.141Z,36.70
2018-04-02T01:42:53.742Z,36.80
2018-04-02T01:45:29.115Z,36.70
2018-04-02T01:48:03.828Z,36.70
2018-04-02T01:50:39.320Z,36.80
2018-04-02T01:53:14.009Z,36.80
2018-04-02T01:55:48.538Z,36.80
2018-04-02T01:58:23.118Z,36.90
2018-04-02T02:00:58.125Z,37.00
2018-04-02T02:03:33.488Z,36.80
2018-04-02T02:06:08.780Z,36.80
2018-04-02T02:08:43.491Z,36.90
2018-04-02T02:11:18.027Z,37.00
2018-04-02T02:13:52.498Z,37.20
2018-04-02T02:16:27.059Z,36.70
2018-04-02T02:19:01.804Z,36.80
2018-04-02T02:21:36.524Z,36.40
2018-04-02T02:24:11.857Z,36.70
2018-04-02T02:26:47.129Z,36.90
2018-04-02T02:29:21.836Z,36.80
2018-04-02T02:31:57.071Z,37.20
2018-04-02T02:34:31.594Z,37.20
2018-04-02T02:37:06.261Z,36.80
2018-04-02T02:39:40.903Z,36.80
2018-04-02T02:42:15.685Z,36.80
2018-04-02T02:44:50.929Z,36.80
2018-04-02T02:47:25.534Z,36.80
2018-04-02T02:50:00.266Z,37.00
2018-04-02T02:52:34.906Z,37.10
2018-04-02T02:55:09.735Z,36.80
2018-04-02T02:57:45.152Z,36.40
2018-04-02T03:00:19.803Z,36.40
2018-04-02T03:02:54.325Z,36.40
2018-04-02T03:05:28.837Z,36.50
2018-04-02T03:08:03.345Z,36.60
2018-04-02T03:10:38.081Z,36.50
2018-04-02T03:13:12.813Z,36.50
2018-04-02T03:15:47.291Z,36.60
2018-04-02T03:18:21.958Z,36.90
2018-04-02T03:20:56.474Z,36.60
2018-04-02T03:23:31.175Z,36.60
2018-04-02T03:26:05.941Z,36.60
2018-04-02T03:28:40.654Z,36.50
2018-04-02T03:31:15.213Z,36.50
2018-04-02T03:33:49.810Z,36.70
2018-04-02T03:36:24.326Z,36.70
2018-04-02T03:38:59.195Z,36.60
2018-04-02T03:41:33.737Z,36.70
2018-04-02T03:44:08.408Z,36.70
2018-04-02T03:46:43.022Z,36.50
2018-04-02T03:49:17.686Z,36.80
2018-04-02T03:51:52.175Z,36.60
2018-04-02T03:54:26.685Z,36.50
2018-04-02T03:57:01.532Z,36.20
2018-04-02T03:59:36.057Z,36.20
2018-04-02T04:02:10.618Z,36.30
2018-04-02T04:04:45.305Z,36.20
2018-04-02T04:07:19.987Z,36.50
2018-04-02T04:09:54.656Z,36.30
2018-04-02T04:12:29.523Z,36.30
2018-04-02T04:15:04.040Z,36.20
2018-04-02T04:17:39.456Z,36.40
2018-04-02T04:20:14.082Z,36.40
2018-04-02T04:22:48.704Z,36.30
2018-04-02T04:25:23.297Z,36.40
2018-04-02T04:27:57.957Z,36.30
2018-04-02T04:30:32.815Z,36.10
2018-04-02T04:33:07.239Z,36.30
2018-04-02T04:35:42.582Z,36.20
2018-04-02T04:38:17.513Z,36.20
2018-04-02T04:40:52.012Z,35.90
2018-04-02T04:43:27.353Z,35.80
2018-04-02T04:46:02.007Z,35.80
2018-04-02T04:48:36.534Z,36.00
2018-04-02T04:51:11.013Z,35.80
2018-04-02T04:53:45.637Z,35.70
2018-04-02T04:56:20.293Z,36.10
2018-04-02T04:58:55.663Z,35.90
2018-04-02T05:01:30.277Z,35.70
2018-04-02T05:04:04.870Z,35.90
2018-04-02T05:06:39.474Z,36.00
2018-04-02T05:09:14.089Z,35.80
2018-04-02T05:11:48.937Z,36.20
2018-04-02T05:14:23.798Z,36.50
2018-04-02T05:16:58.380Z,36.40
2018-04-02T05:19:33.111Z,36.30
2018-04-02T05:22:07.693Z,36.50
2018-04-02T05:24:42.393Z,36.50
2018-04-02T05:27:17.055Z,36.50
2018-04-02T05:29:51.727Z,36.50
2018-04-02T05:32:26.406Z,36.40
2018-04-02T05:35:01.932Z,36.30
2018-04-02T05:37:36.410Z,36.30
2018-04-02T05:40:11.031Z,36.40
2018-04-02T05:42:45.629Z,36.20
2018-04-02T05:45:20.455Z,36.30
2018-04-02T05:47:55.054Z,36.30
2018-04-02T05:50:29.738Z,36.20
2018-04-02T05:53:04.369Z,36.10
2018-04-02T05:55:38.985Z,36.40
2018-04-02T05:58:13.516Z,36.40
2018-04-02T06:00:48.135Z,36.20
2018-04-02T06:03:22.865Z,36.30
2018-04-02T06:05:57.497Z,36.10
2018-04-02T06:08:32.132Z,36.30
2018-04-02T06:11:06.569Z,36.20
2018-04-02T06:13:41.160Z,36.20
2018-04-02T06:16:15.683Z,36.30
2018-04-02T06:18:50.547Z,36.30
2018-04-02T06:21:24.972Z,36.60
2018-04-02T06:23:59.681Z,36.30
2018-04-02T06:26:34.393Z,36.20
2018-04-02T06:29:09.008Z,36.20
2018-04-02T06:31:43.737Z,36.20
2018-04-02T06:34:19.834Z,36.60
2018-04-02T06:36:54.618Z,36.60
2018-04-02T06:39:29.157Z,36.40
2018-04-02T06:42:03.833Z,36.60
2018-04-02T06:44:38.286Z,36.20
2018-04-02T06:47:13.068Z,36.30
2018-04-02T06:49:47.753Z,36.50
2018-04-02T06:52:22.481Z,36.40
2018-04-02T06:54:57.004Z,36.10
2018-04-02T06:57:31.500Z,36.30
2018-04-02T07:00:06.175Z,36.30
2018-04-02T07:02:40.817Z,36.30
2018-04-02T07:05:15.460Z,36.30
2018-04-02T07:07:50.139Z,36.40
2018-04-02T07:10:25.469Z,36.30
2018-04-02T07:13:00.200Z,36.20
2018-04-02T07:15:34.824Z,36.20
2018-04-02T07:18:09.553Z,36.20
2018-04-02T07:20:44.314Z,36.00
2018-04-02T07:23:18.739Z,36.40
2018-04-02T07:25:53.411Z,36.10
2018-04-02T07:28:28.041Z,36.00
2018-04-02T07:31:02.452Z,35.80
2018-04-02T07:33:37.166Z,35.80
2018-04-02T07:36:11.611Z,35.90
2018-04-02T07:38:46.237Z,36.10
2018-04-02T07:41:21.484Z,35.40
2018-04-02T07:43:56.095Z,35.40
2018-04-02T07:46:30.722Z,35.50
2018-04-02T07:49:05.392Z,35.60
2018-04-02T07:51:40.190Z,35.40
2018-04-02T07:54:14.748Z,35.30
2018-04-02T07:56:49.356Z,35.10
2018-04-02T07:59:24.068Z,35.10
2018-04-02T08:01:58.716Z,35.10
2018-04-02T08:04:33.310Z,35.00
2018-04-02T08:07:08.111Z,35.10
2018-04-02T08:09:42.766Z,35.10
2018-04-02T08:12:17.200Z,35.00
2018-04-02T08:14:51.695Z,35.10
2018-04-02T08:17:27.006Z,35.00
2018-04-02T08:20:01.603Z,35.00
2018-04-02T08:22:37.020Z,34.80
2018-04-02T08:25:11.784Z,34.90
2018-04-02T08:27:46.364Z,35.10
2018-04-02T08:30:20.874Z,35.00
2018-04-02T08:32:55.476Z,35.30
2018-04-02T08:35:30.156Z,35.10
2018-04-02T08:38:04.857Z,35.10
2018-04-02T08:40:39.731Z,35.20
2018-04-02T08:43:14.317Z,35.00
2018-04-02T08:45:48.826Z,34.90
2018-04-02T08:48:23.564Z,35.00
2018-04-02T08:50:58.259Z,35.00
2018-04-02T08:53:32.779Z,34.90
2018-04-02T08:56:07.432Z,34.80
2018-04-02T08:58:41.943Z,34.80
2018-04-02T09:01:16.473Z,35.00
2018-04-02T09:03:51.123Z,35.10
2018-04-02T09:06:25.816Z,35.10
2018-04-02T09:09:00.504Z,35.00
2018-04-02T09:11:35.201Z,35.20
2018-04-02T09:14:09.816Z,35.20
2018-04-02T09:16:44.683Z,35.20
2018-04-02T09:19:20.048Z,35.10
2018-04-02T09:21:54.617Z,35.10
2018-04-02T09:24:29.258Z,35.20
2018-04-02T09:27:03.872Z,35.20
2018-04-02T09:29:38.652Z,35.20
2018-04-02T09:32:14.036Z,35.40
2018-04-02T09:34:48.778Z,35.40
2018-04-02T09:37:23.435Z,35.20
2018-04-02T09:39:58.021Z,35.30
2018-04-02T09:42:33.361Z,35.20
2018-04-02T09:45:08.326Z,35.20
2018-04-02T09:47:43.171Z,35.20
2018-04-02T09:50:17.730Z,35.30
2018-04-02T09:52:52.413Z,35.10
2018-04-02T09:55:27.723Z,35.00
2018-04-02T09:58:02.424Z,35.00
2018-04-02T10:00:37.099Z,34.90
2018-04-02T10:03:12.234Z,34.80
2018-04-02T10:05:46.880Z,34.90
2018-04-02T10:08:21.596Z,34.90
2018-04-02T10:10:56.285Z,34.80
2018-04-02T10:13:31.002Z,35.80
2018-04-02T10:16:05.768Z,34.90
2018-04-02T10:18:40.262Z,34.80
2018-04-02T10:21:14.787Z,36.20
2018-04-02T10:23:49.551Z,34.70
2018-04-02T10:26:24.574Z,34.80
2018-04-02T10:28:59.065Z,34.80
2018-04-02T10:31:34.310Z,34.80
2018-04-02T10:34:09.065Z,34.90
2018-04-02T10:36:43.785Z,34.80
2018-04-02T10:39:18.383Z,34.80
2018-04-02T10:41:53.006Z,34.80
2018-04-02T10:44:27.680Z,34.80
2018-04-02T10:47:02.310Z,34.90
2018-04-02T10:49:37.551Z,34.90
2018-04-02T10:52:12.224Z,35.00
2018-04-02T10:54:46.849Z,34.90
2018-04-02T10:57:21.472Z,34.90
2018-04-02T10:59:56.194Z,34.90
2018-04-02T11:02:30.824Z,34.90
2018-04-02T11:05:05.229Z,34.80
2018-04-02T11:07:39.931Z,34.90
2018-04-02T11:10:14.610Z,34.80
2018-04-02T11:12:49.319Z,34.90
2018-04-02T11:15:24.762Z,34.80
2018-04-02T11:17:59.381Z,34.90
2018-04-02T11:20:34.243Z,35.00
2018-04-02T11:23:08.836Z,35.00
2018-04-02T11:25:43.666Z,36.30
2018-04-02T11:28:18.340Z,35.00
2018-04-02T11:30:52.994Z,35.00
2018-04-02T11:33:27.528Z,34.80
2018-04-02T11:36:02.242Z,34.90
2018-04-02T11:38:37.509Z,34.70
2018-04-02T11:41:12.406Z,34.80
2018-04-02T11:43:47.047Z,34.80
2018-04-02T11:46:21.876Z,35.00
2018-04-02T11:48:56.631Z,34.60
2018-04-02T11:51:31.368Z,34.50
2018-04-02T11:54:06.039Z,34.40
2018-04-02T11:56:40.722Z,34.70
2018-04-02T11:59:15.397Z,34.40
2018-04-02T12:01:50.154Z,34.40
2018-04-02T12:04:24.685Z,34.40
2018-04-02T12:06:59.421Z,34.40
2018-04-02T12:09:34.096Z,34.20
2018-04-02T12:12:08.790Z,34.10
2018-04-02T12:14:43.455Z,34.30
2018-04-02T12:17:17.898Z,34.30
2018-04-02T12:19:52.633Z,34.00
2018-04-02T12:22:27.473Z,34.10
2018-04-02T12:25:02.935Z,33.90
2018-04-02T12:27:37.577Z,33.90
2018-04-02T12:30:12.269Z,35.10
2018-04-02T12:32:46.712Z,33.70
2018-04-02T12:35:21.420Z,33.70
2018-04-02T12:37:55.828Z,33.70
2018-04-02T12:40:30.560Z,33.60
2018-04-02T12:43:05.049Z,33.50
2018-04-02T12:45:39.712Z,33.80
2018-04-02T12:48:14.373Z,33.60
2018-04-02T12:50:48.979Z,33.60
2018-04-02T12:53:23.504Z,33.70
2018-04-02T12:55:58.408Z,33.70
2018-04-02T12:58:33.099Z,33.60
2018-04-02T13:01:07.734Z,33.50
2018-04-02T13:03:42.444Z,33.70
2018-04-02T13:06:17.017Z,33.60
2018-04-02T13:08:51.604Z,33.50
2018-04-02T13:11:26.168Z,33.70
2018-04-02T13:14:00.793Z,32.90
2018-04-02T13:16:35.421Z,33.60
2018-04-02T13:19:10.043Z,33.50
2018-04-02T13:21:45.010Z,33.40
2018-04-02T13:24:20.464Z,33.40
2018-04-02T13:26:55.143Z,33.20
2018-04-02T13:29:29.761Z,33.60
2018-04-02T13:32:04.536Z,33.60
2018-04-02T13:34:39.025Z,33.50
2018-04-02T13:37:14.091Z,33.40
2018-04-02T13:39:48.673Z,33.50
2018-04-02T13:42:23.296Z,33.60
2018-04-02T13:44:57.830Z,33.40
2018-04-02T13:47:32.548Z,33.60
2018-04-02T13:50:07.225Z,33.40
2018-04-02T13:52:41.906Z,33.60
2018-04-02T13:55:16.551Z,33.40
2018-04-02T13:57:51.261Z,33.60
2018-04-02T14:00:25.895Z,33.50
2018-04-02T14:03:00.749Z,33.40
2018-04-02T14:05:35.291Z,33.60
2018-04-02T14:08:10.293Z,33.40
2018-04-02T14:10:44.854Z,33.40
2018-04-02T14:13:19.517Z,33.30
2018-04-02T14:15:54.064Z,33.60
2018-04-02T14:18:28.769Z,33.40
2018-04-02T14:21:03.437Z,33.60
2018-04-02T14:23:38.082Z,33.40
2018-04-02T14:26:12.637Z,33.50
2018-04-02T14:28:47.260Z,33.50
2018-04-02T14:31:22.149Z,33.50
2018-04-02T14:33:56.930Z,33.40
2018-04-02T14:36:31.453Z,33.50
2018-04-02T14:39:06.862Z,33.50
2018-04-02T14:41:41.416Z,33.30
2018-04-02T14:44:16.192Z,33.50
2018-04-02T14:46:50.648Z,33.50
2018-04-02T14:49:25.427Z,33.40
2018-04-02T14:51:59.928Z,33.40
2018-04-02T14:54:34.559Z,33.40
2018-04-02T14:57:09.326Z,33.50
2018-04-02T14:59:44.832Z,34.30
2018-04-02T15:02:19.274Z,33.50
2018-04-02T15:04:53.860Z,33.50
2018-04-02T15:07:28.364Z,33.40
2018-04-02T15:10:03.113Z,33.60
2018-04-02T15:12:37.725Z,33.50
2018-04-02T15:15:12.361Z,33.60
2018-04-02T15:17:46.881Z,33.50
2018-04-02T15:20:21.708Z,33.40
2018-04-02T15:22:56.333Z,33.50
2018-04-02T15:25:30.960Z,33.60
2018-04-02T15:28:05.579Z,33.40
2018-04-02T15:30:40.321Z,33.40
2018-04-02T15:33:15.859Z,33.30
2018-04-02T15:35:50.456Z,33.30
2018-04-02T15:38:25.332Z,34.80
2018-04-02T15:40:59.736Z,33.40
2018-04-02T15:43:34.438Z,33.40
2018-04-02T15:46:09.198Z,33.40
2018-04-02T15:48:43.729Z,33.40
2018-04-02T15:51:18.250Z,33.40
2018-04-02T15:53:53.075Z,33.40
2018-04-02T15:56:27.656Z,33.40
2018-04-02T15:59:02.255Z,33.40
2018-04-02T16:01:36.836Z,33.30
2018-04-02T16:04:11.564Z,33.30
2018-04-02T16:06:46.138Z,33.40
2018-04-02T16:09:20.712Z,33.30
2018-04-02T16:11:55.341Z,33.30
2018-04-02T16:14:30.023Z,33.30
2018-04-02T16:17:04.639Z,33.40
2018-04-02T16:19:39.663Z,33.40
2018-04-02T16:22:14.892Z,33.40
2018-04-02T16:24:49.599Z,33.30
2018-04-02T16:27:24.270Z,33.30
2018-04-02T16:29:59.621Z,33.40
2018-04-02T16:32:34.387Z,33.40
2018-04-02T16:35:09.030Z,33.40
2018-04-02T16:37:43.661Z,33.40
2018-04-02T16:40:18.143Z,33.50
2018-04-02T16:42:52.867Z,33.40
2018-04-02T16:45:27.519Z,33.40
2018-04-02T16:48:02.243Z,33.40
2018-04-02T16:50:37.164Z,33.40
2018-04-02T16:53:12.051Z,33.50
2018-04-02T16:55:46.645Z,33.70
2018-04-02T16:58:21.250Z,33.70
2018-04-02T17:00:55.757Z,33.50
2018-04-02T17:03:30.483Z,33.60
2018-04-02T17:06:05.031Z,33.60
2018-04-02T17:08:39.733Z,33.80
2018-04-02T17:11:15.351Z,33.80
2018-04-02T17:13:50.644Z,33.70
2018-04-02T17:16:25.712Z,33.70
2018-04-02T17:19:00.152Z,33.80
2018-04-02T17:21:35.590Z,33.70
2018-04-02T17:24:10.993Z,33.80
2018-04-02T17:26:45.951Z,33.70
2018-04-02T17:29:20.454Z,33.80
2018-04-02T17:31:55.164Z,33.00
2018-04-02T17:34:29.998Z,33.70
2018-04-02T17:37:05.366Z,33.90
2018-04-02T17:39:40.065Z,33.80
2018-04-02T17:42:14.804Z,34.10
2018-04-02T17:44:50.282Z,33.90
2018-04-02T17:47:24.756Z,33.90
2018-04-02T17:49:59.279Z,34.20
2018-04-02T17:52:34.014Z,34.00
2018-04-02T17:55:08.552Z,34.00
2018-04-02T17:57:43.047Z,34.00
2018-04-02T18:00:17.451Z,34.10
2018-04-02T18:02:52.051Z,34.10
2018-04-02T18:05:27.439Z,34.10
2018-04-02T18:08:01.961Z,34.10
2018-04-02T18:10:36.615Z,34.10
2018-04-02T18:13:11.658Z,34.10
2018-04-02T18:15:46.250Z,34.10
2018-04-02T18:18:20.931Z,34.10
2018-04-02T18:20:55.702Z,34.10
2018-04-02T18:23:30.213Z,34.30
2018-04-02T18:26:05.056Z,34.30
2018-04-02T18:28:39.819Z,34.20
2018-04-02T18:31:14.478Z,34.20
2018-04-02T18:33:49.100Z,34.30
2018-04-02T18:36:23.853Z,34.30
2018-04-02T18:38:58.482Z,34.40
2018-04-02T18:41:33.931Z,34.50
2018-04-02T18:44:08.705Z,34.40
2018-04-02T18:46:43.288Z,34.50
2018-04-02T18:49:17.821Z,34.50
2018-04-02T18:51:52.774Z,34.50
2018-04-02T18:54:27.256Z,34.50
2018-04-02T18:57:01.664Z,33.70
2018-04-02T18:59:36.405Z,34.70
2018-04-02T19:02:10.944Z,34.70
2018-04-02T19:04:45.683Z,34.60
2018-04-02T19:07:21.112Z,34.70
2018-04-02T19:09:55.870Z,34.60
2018-04-02T19:12:30.547Z,34.60
2018-04-02T19:15:05.289Z,34.90
2018-04-02T19:17:40.008Z,34.90
2018-04-02T19:20:14.878Z,34.90
2018-04-02T19:22:49.469Z,34.70
2018-04-02T19:25:24.652Z,34.80
2018-04-02T19:28:00.145Z,35.00
2018-04-02T19:30:34.770Z,34.90
2018-04-02T19:33:09.385Z,35.00
2018-04-02T19:35:44.609Z,35.00
2018-04-02T19:38:19.226Z,35.00
2018-04-02T19:40:53.800Z,35.10
2018-04-02T19:43:28.468Z,35.10
2018-04-02T19:46:03.029Z,35.10
2018-04-02T19:48:37.551Z,35.10
2018-04-02T19:51:12.770Z,35.10
2018-04-02T19:53:47.426Z,35.00
2018-04-02T19:56:21.894Z,35.20
2018-04-02T19:58:56.667Z,35.00
2018-04-02T20:01:31.300Z,35.10
2018-04-02T20:04:05.814Z,35.20
2018-04-02T20:06:40.509Z,35.10
2018-04-02T20:09:15.413Z,35.00
2018-04-02T20:11:50.725Z,36.20
2018-04-02T20:14:25.374Z,35.10
2018-04-02T20:16:59.968Z,34.90
2018-04-02T20:19:34.494Z,34.80
2018-04-02T20:22:09.166Z,35.20
2018-04-02T20:24:44.668Z,35.20
2018-04-02T20:27:19.175Z,35.10
2018-04-02T20:29:53.947Z,35.50
2018-04-02T20:32:28.531Z,35.50
2018-04-02T20:35:03.182Z,35.30
2018-04-02T20:37:37.783Z,34.80
2018-04-02T20:40:12.405Z,35.00
2018-04-02T20:42:47.060Z,34.80
2018-04-02T20:45:21.742Z,34.90
2018-04-02T20:47:56.493Z,34.80
2018-04-02T20:50:30.954Z,35.20
2018-04-02T20:53:05.644Z,35.10
2018-04-02T20:55:40.270Z,35.10
2018-04-02T20:58:14.760Z,35.10
2018-04-02T21:00:49.420Z,35.20
2018-04-02T21:03:24.856Z,35.30
2018-04-02T21:05:59.512Z,35.20
2018-04-02T21:08:34.124Z,35.30
2018-04-02T21:11:08.832Z,35.20
2018-04-02T21:13:43.479Z,35.10
2018-04-02T21:16:17.992Z,35.30
2018-04-02T21:18:52.710Z,35.30
2018-04-02T21:21:27.233Z,35.20
2018-04-02T21:24:01.875Z,35.30
2018-04-02T21:26:36.546Z,35.30
2018-04-02T21:29:11.080Z,35.30
2018-04-02T21:31:45.625Z,35.30
2018-04-02T21:34:20.347Z,35.30
2018-04-02T21:36:54.905Z,35.30
2018-04-02T21:39:29.611Z,35.20
2018-04-02T21:42:04.107Z,35.30
2018-04-02T21:44:38.632Z,35.20
2018-04-02T21:47:13.412Z,35.30
2018-04-02T21:49:48.025Z,35.20
2018-04-02T21:52:22.741Z,35.20
2018-04-02T21:54:57.434Z,35.20
2018-04-02T21:57:32.046Z,35.20
2018-04-02T22:00:06.707Z,35.20
2018-04-02T22:02:41.272Z,35.20
2018-04-02T22:05:15.771Z,35.20
2018-04-02T22:07:50.375Z,35.20
2018-04-02T22:10:25.174Z,35.10
2018-04-02T22:12:59.729Z,35.20
2018-04-02T22:15:34.448Z,35.10
2018-04-02T22:18:09.817Z,35.10
2018-04-02T22:20:45.259Z,35.10
2018-04-02T22:23:19.874Z,35.10
2018-04-02T22:25:54.502Z,35.10
2018-04-02T22:28:29.214Z,35.10
2018-04-02T22:31:03.989Z,35.10
2018-04-02T22:33:39.286Z,35.00
2018-04-02T22:36:13.917Z,35.00
2018-04-02T22:38:48.543Z,35.10
2018-04-02T22:41:23.171Z,35.10
2018-04-02T22:43:57.676Z,35.10
2018-04-02T22:46:32.514Z,35.10
2018-04-02T22:49:07.484Z,35.10
2018-04-02T22:51:42.892Z,35.10
2018-04-02T22:54:17.437Z,35.00
2018-04-02T22:56:51.931Z,35.10
2018-04-02T22:59:26.572Z,35.00
2018-04-02T23:02:01.963Z,35.10
2018-04-02T23:04:36.674Z,35.00
2018-04-02T23:07:11.107Z,35.00
2018-04-02T23:09:45.802Z,35.00
2018-04-02T23:12:20.404Z,35.00
2018-04-02T23:14:55.044Z,35.00
2018-04-02T23:17:29.605Z,35.10
2018-04-02T23:20:04.126Z,35.10
2018-04-02T23:22:50.892Z,35.20
2018-04-02T23:25:25.484Z,35.00
2018-04-02T23:28:00.148Z,35.10
2018-04-02T23:30:34.657Z,35.10
2018-04-02T23:33:10.038Z,35.30
2018-04-02T23:35:45.544Z,35.10
2018-04-02T23:38:20.175Z,35.10
2018-04-02T23:40:54.907Z,35.30
2018-04-02T23:43:29.447Z,35.10
2018-04-02T23:46:04.044Z,35.00
2018-04-02T23:48:38.771Z,35.00
2018-04-02T23:51:13.494Z,35.00
2018-04-02T23:53:48.162Z,35.00
2018-04-02T23:56:24.408Z,35.20
2018-04-02T23:58:59.124Z,35.00
